Time;durP1;ratioP1;P1;durP2;ratioP2;P2;SDS_P1;SDS_P2;PMS_P1;PMS_P2;Temp;Humidity;BMP_temperature;BMP_pressure;BME280_temperature;BME280_humidity;BME280_pressure;Samples;Min_cycle;Max_cycle;Signal;HPM_P1;HPM_P2
2023/12/26 00:01:18;;;;;;;;;;;;;;;10.59;100.00;100557.38;5103219;28;19928;-48
2023/12/26 00:03:44;;;;;;;;;;;;;;;10.62;100.00;100563.22;5108839;28;20378;-47
2023/12/26 00:06:09;;;;;;;;;;;;;;;10.61;100.00;100556.16;5108626;28;19920;-47
2023/12/26 00:08:34;;;;;;;;;;;;;;;10.60;100.00;100553.66;5109138;28;19916;-46
2023/12/26 00:11:00;;;;;;;;;;;;;;;10.61;100.00;100545.41;5107884;28;20294;-47
2023/12/26 00:13:25;;;;;;;;;;;;;;;10.60;100.00;100549.09;5105699;28;19920;-47
2023/12/26 00:15:51;;;;;;;;;;;;;;;10.56;100.00;100542.44;5108415;28;19933;-47
2023/12/26 00:18:17;;;;;;;;;;;;;;;10.59;100.00;100552.00;5108338;28;19976;-47
2023/12/26 00:20:43;;;;;;;;;;;;;;;10.61;100.00;100558.00;5105498;28;21097;-47
2023/12/26 00:23:08;;;;;;;;;;;;;;;10.57;100.00;100567.50;5106552;28;20033;-47
2023/12/26 00:25:34;;;;;;;;;;;;;;;10.58;100.00;100559.22;5093550;28;20389;-49
2023/12/26 00:27:59;;;;;;;;;;;;;;;10.58;100.00;100558.38;5095365;28;19916;-46
2023/12/26 00:30:24;;;;;;;;;;;;;;;10.59;100.00;100563.59;5107811;28;20262;-46
2023/12/26 00:32:49;;;;;;;;;;;;;;;10.59;100.00;100557.38;5108599;28;19916;-47
2023/12/26 00:35:15;;;;;;;;;;;;;;;10.62;100.00;100557.81;5105482;28;19966;-48
2023/12/26 00:37:40;;;;;;;;;;;;;;;10.60;100.00;100553.66;5107750;28;19948;-47
2023/12/26 00:40:06;;;;;;;;;;;;;;;10.60;100.00;100543.72;5106816;28;20336;-46
2023/12/26 00:42:31;;;;;;;;;;;;;;;10.67;100.00;100544.63;5106444;28;19976;-47
2023/12/26 00:44:57;;;;;;;;;;;;;;;10.64;100.00;100552.25;5102853;28;19924;-47
2023/12/26 00:47:22;;;;;;;;;;;;;;;10.62;100.00;100557.00;5107972;28;19916;-47
2023/12/26 00:49:47;;;;;;;;;;;;;;;10.60;100.00;100553.66;5108249;27;19916;-47
2023/12/26 00:52:12;;;;;;;;;;;;;;;10.62;100.00;100559.69;5094811;28;20459;-47
2023/12/26 00:54:38;;;;;;;;;;;;;;;10.60;100.00;100565.25;5105598;28;19920;-46
2023/12/26 00:57:03;;;;;;;;;;;;;;;10.63;100.00;100561.34;5107303;28;19923;-45
2023/12/26 00:59:28;;;;;;;;;;;;;;;10.55;100.00;100568.50;5105026;28;19973;-46
2023/12/26 01:01:53;;;;;;;;;;;;;;;10.58;100.00;100553.00;5104652;28;20374;-46
2023/12/26 01:04:21;;;;;;;;;;;;;;;10.58;100.00;100564.59;5107423;28;20015;-45
2023/12/26 01:06:46;;;;;;;;;;;;;;;10.56;100.00;100569.34;5104895;28;19942;-45
2023/12/26 01:09:12;;;;;;;;;;;;;;;10.53;100.00;100557.09;5104165;28;19920;-44
2023/12/26 01:11:37;;;;;;;;;;;;;;;10.55;100.00;100568.50;5107812;28;20452;-44
2023/12/26 01:14:03;;;;;;;;;;;;;;;10.55;100.00;100568.50;5106665;28;20340;-45
2023/12/26 01:16:28;;;;;;;;;;;;;;;10.53;100.00;100591.22;5107737;28;19919;-45
2023/12/26 01:18:53;;;;;;;;;;;;;;;10.55;100.00;100562.28;5106517;28;19969;-44
2023/12/26 01:21:19;;;;;;;;;;;;;;;10.54;100.00;100574.09;5107840;28;20429;-44
2023/12/26 01:23:44;;;;;;;;;;;;;;;10.54;100.00;100574.09;5104589;28;20010;-44
2023/12/26 01:26:09;;;;;;;;;;;;;;;10.51;100.00;100575.28;5106960;28;19920;-45
2023/12/26 01:28:34;;;;;;;;;;;;;;;10.52;100.00;100579.63;5106834;28;19915;-44
2023/12/26 01:31:00;;;;;;;;;;;;;;;10.52;100.00;100573.44;5103731;28;19966;-43
2023/12/26 01:33:25;;;;;;;;;;;;;;;10.54;100.00;100574.09;5101629;28;19923;-44
2023/12/26 01:35:50;;;;;;;;;;;;;;;10.55;100.00;100583.81;5107553;28;19923;-45
2023/12/26 01:38:15;;;;;;;;;;;;;;;10.52;100.00;100581.50;5104734;28;20384;-43
2023/12/26 01:40:41;;;;;;;;;;;;;;;10.54;100.00;100596.44;5107520;28;20068;-45
2023/12/26 01:43:06;;;;;;;;;;;;;;;10.57;100.00;100595.22;5106708;28;19924;-45
2023/12/26 01:45:32;;;;;;;;;;;;;;;10.55;100.00;100608.03;5107072;28;20015;-46
2023/12/26 01:47:57;;;;;;;;;;;;;;;10.53;100.00;100607.38;5106292;28;19922;-43
2023/12/26 01:50:22;;;;;;;;;;;;;;;10.52;100.00;100595.78;5104680;28;20337;-44
2023/12/26 01:52:48;;;;;;;;;;;;;;;10.49;100.00;100603.41;5095071;28;19916;-44
2023/12/26 01:55:14;;;;;;;;;;;;;;;10.51;100.00;100609.44;5095208;28;20061;-43
2023/12/26 01:57:39;;;;;;;;;;;;;;;10.44;100.00;100609.34;5111253;28;20693;-44
2023/12/26 02:00:05;;;;;;;;;;;;;;;10.44;100.00;100603.13;5110864;28;19916;-45
2023/12/26 02:02:31;;;;;;;;;;;;;;;10.41;100.00;100598.13;5103335;28;20041;-45
2023/12/26 02:04:56;;;;;;;;;;;;;;;10.33;100.00;100613.34;5100984;28;19923;-44
2023/12/26 02:07:22;;;;;;;;;;;;;;;10.33;100.00;100602.56;5111532;28;19938;-44
2023/12/26 02:09:47;;;;;;;;;;;;;;;10.32;100.00;100606.31;5111700;28;19916;-44
2023/12/26 02:12:12;;;;;;;;;;;;;;;10.30;100.00;100623.66;5107705;28;19980;-46
2023/12/26 02:14:37;;;;;;;;;;;;;;;10.26;100.00;100627.69;5110768;28;20396;-45
2023/12/26 02:17:04;;;;;;;;;;;;;;;10.26;100.00;100617.75;5109812;28;19915;-43
2023/12/26 02:19:29;;;;;;;;;;;;;;;10.21;100.00;100630.91;5108865;28;20297;-45
2023/12/26 02:21:55;;;;;;;;;;;;;;;10.24;100.00;100629.72;5109991;28;19912;-45
2023/12/26 02:24:20;;;;;;;;;;;;;;;10.23;100.00;100630.75;5111214;28;19916;-44
2023/12/26 02:26:45;;;;;;;;;;;;;;;10.16;100.00;100625.25;5110888;28;19915;-45
2023/12/26 02:29:10;;;;;;;;;;;;;;;10.15;100.00;100620.91;5106885;28;19930;-45
2023/12/26 02:31:36;;;;;;;;;;;;;;;10.16;100.00;100627.94;5099354;28;20098;-45
2023/12/26 02:34:01;;;;;;;;;;;;;;;10.14;100.00;100634.53;5098930;28;20361;-44
2023/12/26 02:36:27;;;;;;;;;;;;;;;10.11;100.00;100657.28;5092631;28;20341;-45
2023/12/26 02:38:52;;;;;;;;;;;;;;;9.98;100.00;100636.38;5107188;28;20008;-44
2023/12/26 02:41:17;;;;;;;;;;;;;;;9.93;100.00;100638.78;5098826;28;19946;-44
2023/12/26 02:43:42;;;;;;;;;;;;;;;9.91;100.00;100646.19;5107519;28;19932;-45
2023/12/26 02:46:07;;;;;;;;;;;;;;;9.84;100.00;100627.25;5110266;28;19938;-43
2023/12/26 02:48:33;;;;;;;;;;;;;;;9.81;100.00;100648.28;5101852;28;19916;-45
2023/12/26 02:50:58;;;;;;;;;;;;;;;9.79;100.00;100653.84;5107554;28;19965;-44
2023/12/26 02:53:23;;;;;;;;;;;;;;;9.79;100.00;100655.69;5110282;28;19923;-44
2023/12/26 02:55:49;;;;;;;;;;;;;;;9.78;100.00;100665.63;5108259;28;20372;-44
2023/12/26 02:58:14;;;;;;;;;;;;;;;9.70;100.00;100665.69;5109529;28;19920;-45
2023/12/26 03:00:40;;;;;;;;;;;;;;;9.65;100.00;100668.09;5110405;28;19935;-44
2023/12/26 03:03:06;;;;;;;;;;;;;;;9.64;100.00;100669.09;5109584;28;20346;-44
2023/12/26 03:05:31;;;;;;;;;;;;;;;9.67;100.00;100658.00;5107396;28;19959;-44
2023/12/26 03:07:57;;;;;;;;;;;;;;;9.66;100.00;100664.38;5106250;28;20317;-44
2023/12/26 03:10:22;;;;;;;;;;;;;;;9.68;100.00;100673.91;5109492;28;19927;-45
2023/12/26 03:12:47;;;;;;;;;;;;;;;9.65;100.00;100685.03;5110534;28;19920;-45
2023/12/26 03:15:12;;;;;;;;;;;;;;;9.67;100.00;100687.56;5106708;28;19931;-45
2023/12/26 03:17:38;;;;;;;;;;;;;;;9.63;100.00;100681.69;5106410;28;19924;-46
2023/12/26 03:20:03;;;;;;;;;;;;;;;9.60;100.00;100689.28;5105818;28;19916;-45
2023/12/26 03:22:28;;;;;;;;;;;;;;;9.58;100.00;100700.19;5109898;28;20297;-46
2023/12/26 03:24:54;;;;;;;;;;;;;;;9.54;100.00;100687.31;5109327;28;19916;-45
2023/12/26 03:27:19;;;;;;;;;;;;;;;9.55;100.00;100695.19;5109248;28;19923;-45
2023/12/26 03:29:44;;;;;;;;;;;;;;;9.54;100.00;100698.06;5110178;28;19916;-45
2023/12/26 03:32:10;;;;;;;;;;;;;;;9.50;100.00;100702.94;5107289;28;20419;-44
2023/12/26 03:34:37;;;;;;;;;;;;;;;9.43;100.00;100697.47;5108731;28;19924;-45
2023/12/26 03:37:02;;;;;;;;;;;;;;;9.46;100.00;100701.63;5102837;28;19935;-45
2023/12/26 03:39:28;;;;;;;;;;;;;;;9.42;100.00;100698.47;5110105;27;20365;-45
2023/12/26 03:41:53;;;;;;;;;;;;;;;9.41;100.00;100701.34;5109868;28;19912;-45
2023/12/26 03:44:18;;;;;;;;;;;;;;;9.44;100.00;100700.97;5107687;28;20303;-45
2023/12/26 03:46:43;;;;;;;;;;;;;;;9.43;100.00;100702.84;5112673;28;19923;-45
2023/12/26 03:49:09;;;;;;;;;;;;;;;9.44;100.00;100715.25;5110997;28;19924;-45
2023/12/26 03:51:34;;;;;;;;;;;;;;;9.41;100.00;100699.47;5111963;28;19922;-46
2023/12/26 03:54:00;;;;;;;;;;;;;;;9.36;100.00;100691.13;5110661;28;19931;-45
2023/12/26 03:56:31;;;;;;;;;;;;;;;9.33;100.00;100696.03;5110320;28;19915;-45
2023/12/26 03:58:57;;;;;;;;;;;;;;;9.31;100.00;100688.13;5110528;28;19923;-46
2023/12/26 04:01:22;;;;;;;;;;;;;;;9.31;100.00;100681.94;5110480;28;19915;-45
2023/12/26 04:03:47;;;;;;;;;;;;;;;9.34;100.00;100709.25;5105193;28;19919;-45
2023/12/26 04:06:13;;;;;;;;;;;;;;;9.32;100.00;100727.41;5109459;28;19924;-45
2023/12/26 04:08:38;;;;;;;;;;;;;;;9.31;100.00;100735.63;5108733;27;20644;-46
2023/12/26 04:11:03;;;;;;;;;;;;;;;9.18;100.00;100730.84;5108517;28;19923;-44
2023/12/26 04:13:29;;;;;;;;;;;;;;;9.11;100.00;100735.22;5109600;28;19920;-45
2023/12/26 04:15:54;;;;;;;;;;;;;;;9.08;100.00;100725.66;5110809;28;19951;-45
2023/12/26 04:18:19;;;;;;;;;;;;;;;9.07;100.00;100728.53;5106080;28;19939;-45
2023/12/26 04:20:45;;;;;;;;;;;;;;;9.01;100.00;100728.22;5109142;28;20291;-45
2023/12/26 04:23:10;;;;;;;;;;;;;;;9.01;100.00;100727.41;5107303;28;19955;-45
2023/12/26 04:25:35;;;;;;;;;;;;;;;9.00;100.00;100736.44;5108261;28;19924;-45
2023/12/26 04:28:00;;;;;;;;;;;;;;;8.94;100.00;100740.66;5107659;28;19916;-45
2023/12/26 04:30:26;;;;;;;;;;;;;;;8.94;100.00;100750.56;5108787;28;20368;-45
2023/12/26 04:32:51;;;;;;;;;;;;;;;8.92;100.00;100745.38;5105009;28;19923;-45
2023/12/26 04:35:16;;;;;;;;;;;;;;;8.91;100.00;100734.81;5108193;28;19924;-45
2023/12/26 04:37:41;;;;;;;;;;;;;;;8.91;100.00;100748.25;5108242;28;20392;-45
2023/12/26 04:40:07;;;;;;;;;;;;;;;8.89;100.00;100748.41;5104140;28;20031;-45
2023/12/26 04:42:32;;;;;;;;;;;;;;;8.92;100.00;100747.22;5104109;28;19916;-45
2023/12/26 04:44:57;;;;;;;;;;;;;;;8.88;100.00;100760.16;5107675;28;19916;-45
2023/12/26 04:47:23;;;;;;;;;;;;;;;8.84;100.00;100761.50;5108179;28;19916;-45
2023/12/26 04:49:48;;;;;;;;;;;;;;;8.82;100.00;100752.81;5106416;28;19963;-45
2023/12/26 04:52:14;;;;;;;;;;;;;;;8.81;100.00;100764.53;5107776;28;20635;-45
2023/12/26 04:54:40;;;;;;;;;;;;;;;8.83;100.00;100775.13;5107107;28;19955;-45
2023/12/26 04:57:05;;;;;;;;;;;;;;;8.82;100.00;100773.41;5103767;28;19965;-45
2023/12/26 04:59:31;;;;;;;;;;;;;;;8.76;100.00;100769.59;5107374;28;20367;-45
2023/12/26 05:01:56;;;;;;;;;;;;;;;8.70;100.00;100775.66;5101456;28;19926;-45
2023/12/26 05:04:21;;;;;;;;;;;;;;;8.70;100.00;100776.47;5107519;28;20002;-45
2023/12/26 05:06:46;;;;;;;;;;;;;;;8.68;100.00;100786.53;5107860;28;20335;-46
2023/12/26 05:09:12;;;;;;;;;;;;;;;8.65;100.00;100772.63;5105188;28;19960;-45
2023/12/26 05:11:37;;;;;;;;;;;;;;;8.63;100.00;100785.38;5105695;28;19923;-45
2023/12/26 05:14:02;;;;;;;;;;;;;;;8.63;100.00;100783.53;5102379;28;19989;-45
2023/12/26 05:16:28;;;;;;;;;;;;;;;8.63;100.00;100782.69;5104442;28;19916;-45
2023/12/26 05:18:53;;;;;;;;;;;;;;;8.59;100.00;100789.41;5107398;28;19922;-46
2023/12/26 05:21:19;;;;;;;;;;;;;;;8.57;100.00;100786.91;5107170;28;20266;-46
2023/12/26 05:23:44;;;;;;;;;;;;;;;8.59;100.00;100794.78;5107907;28;19924;-45
2023/12/26 05:26:09;;;;;;;;;;;;;;;8.57;100.00;100790.41;5106783;28;20001;-45
2023/12/26 05:28:36;;;;;;;;;;;;;;;8.57;100.00;100809.19;5105579;28;19916;-45
2023/12/26 05:31:03;;;;;;;;;;;;;;;8.61;100.00;100804.34;5106107;28;20047;-45
2023/12/26 05:33:28;;;;;;;;;;;;;;;8.57;100.00;100814.56;5107403;28;19915;-44
2023/12/26 05:35:53;;;;;;;;;;;;;;;8.64;100.00;100819.25;5106284;28;20251;-45
2023/12/26 05:38:18;;;;;;;;;;;;;;;8.62;100.00;100822.09;5107405;28;19931;-45
2023/12/26 05:40:43;;;;;;;;;;;;;;;8.65;100.00;100828.97;5107161;28;19924;-44
2023/12/26 05:43:09;;;;;;;;;;;;;;;8.65;100.00;100826.28;5106022;28;19924;-45
2023/12/26 05:45:34;;;;;;;;;;;;;;;8.67;100.00;100829.66;5098473;28;20270;-44
2023/12/26 05:47:59;;;;;;;;;;;;;;;8.67;100.00;100830.47;5106258;28;19920;-45
2023/12/26 05:50:24;;;;;;;;;;;;;;;8.66;100.00;100844.06;5106120;28;19961;-44
2023/12/26 05:52:50;;;;;;;;;;;;;;;8.66;100.00;100842.22;5101830;28;20007;-43
2023/12/26 05:55:15;;;;;;;;;;;;;;;8.66;100.00;100846.72;5097726;28;19923;-44
2023/12/26 05:57:40;;;;;;;;;;;;;;;8.67;100.00;100854.63;5106556;28;19928;-44
2023/12/26 06:00:06;;;;;;;;;;;;;;;8.65;100.00;100853.13;5106129;28;20826;-44
2023/12/26 06:02:31;;;;;;;;;;;;;;;8.64;100.00;100870.22;5106849;28;19916;-46
2023/12/26 06:04:57;;;;;;;;;;;;;;;8.66;100.00;100865.50;5106733;28;19969;-43
2023/12/26 06:07:22;;;;;;;;;;;;;;;8.68;100.00;100869.72;5106387;28;19923;-46
2023/12/26 06:09:48;;;;;;;;;;;;;;;8.64;100.00;100878.28;5107448;28;19916;-44
2023/12/26 06:12:13;;;;;;;;;;;;;;;8.67;100.00;100873.41;5105581;28;19998;-46
2023/12/26 06:14:39;;;;;;;;;;;;;;;8.64;100.00;100886.34;5100524;28;19923;-44
2023/12/26 06:17:04;;;;;;;;;;;;;;;8.64;100.00;100900.59;5105534;28;19912;-46
2023/12/26 06:19:29;;;;;;;;;;;;;;;8.66;100.00;100876.25;5104670;28;19920;-43
2023/12/26 06:21:55;;;;;;;;;;;;;;;8.62;100.00;100891.03;5105993;28;19911;-46
2023/12/26 06:24:20;;;;;;;;;;;;;;;8.67;100.00;100904.78;5101348;28;19923;-46
2023/12/26 06:26:45;;;;;;;;;;;;;;;8.61;100.00;100908.97;5103798;28;19912;-45
2023/12/26 06:29:10;;;;;;;;;;;;;;;8.57;100.00;100916.50;5105681;28;19928;-45
2023/12/26 06:31:35;;;;;;;;;;;;;;;8.55;100.00;100918.50;5097355;28;21062;-46
2023/12/26 06:34:01;;;;;;;;;;;;;;;8.57;100.00;100921.03;5106018;28;19916;-45
2023/12/26 06:36:30;;;;;;;;;;;;;;;8.54;100.00;100932.94;5106287;28;19923;-45
2023/12/26 06:39:00;;;;;;;;;;;;;;;8.49;100.00;100946.00;5104457;28;19924;-46
2023/12/26 06:41:25;;;;;;;;;;;;;;;8.49;100.00;100945.16;5108988;28;20363;-46
2023/12/26 06:43:51;;;;;;;;;;;;;;;8.47;100.00;100947.16;5107617;28;19923;-46
2023/12/26 06:46:16;;;;;;;;;;;;;;;8.50;100.00;100952.19;5110766;28;20348;-45
2023/12/26 06:48:41;;;;;;;;;;;;;;;8.47;100.00;100953.38;5109760;28;19953;-45
2023/12/26 06:51:07;;;;;;;;;;;;;;;8.46;100.00;100957.06;5109495;28;19962;-45
2023/12/26 06:53:32;;;;;;;;;;;;;;;8.50;100.00;100954.88;5109727;28;19915;-45
2023/12/26 06:55:57;;;;;;;;;;;;;;;8.45;100.00;100954.53;5110212;28;20365;-44
2023/12/26 06:58:22;;;;;;;;;;;;;;;8.49;100.00;100961.25;5106820;28;19920;-47
2023/12/26 07:00:48;;;;;;;;;;;;;;;8.49;100.00;100972.81;5107390;28;19934;-44
2023/12/26 07:03:13;;;;;;;;;;;;;;;8.52;100.00;100960.91;5109451;28;19927;-45
2023/12/26 07:05:38;;;;;;;;;;;;;;;8.52;100.00;100968.97;5109464;28;20273;-45
2023/12/26 07:08:04;;;;;;;;;;;;;;;8.52;100.00;100958.25;5109123;28;20358;-44
2023/12/26 07:10:29;;;;;;;;;;;;;;;8.52;100.00;100972.47;5109535;27;19939;-45
2023/12/26 07:12:54;;;;;;;;;;;;;;;8.55;100.00;100965.94;5109801;28;19969;-45
2023/12/26 07:15:19;;;;;;;;;;;;;;;8.53;100.00;100971.50;5109865;27;19947;-45
2023/12/26 07:17:45;;;;;;;;;;;;;;;8.52;100.00;100972.47;5110739;28;20034;-45
2023/12/26 07:20:10;;;;;;;;;;;;;;;8.54;100.00;100978.53;5110560;28;19924;-45
2023/12/26 07:22:35;;;;;;;;;;;;;;;8.53;100.00;100974.19;5109747;28;19931;-45
2023/12/26 07:25:01;;;;;;;;;;;;;;;8.53;100.00;100986.72;5109824;28;19919;-45
2023/12/26 07:27:26;;;;;;;;;;;;;;;8.54;100.00;100996.47;5095423;28;20373;-45
2023/12/26 07:29:51;;;;;;;;;;;;;;;8.53;100.00;101010.88;5109373;28;19920;-45
2023/12/26 07:32:19;;;;;;;;;;;;;;;8.52;100.00;101015.41;5109594;28;19977;-46
2023/12/26 07:34:45;;;;;;;;;;;;;;;8.52;100.00;101015.41;5107274;28;19939;-45
2023/12/26 07:37:10;;;;;;;;;;;;;;;8.50;100.00;101020.09;5109638;28;20393;-45
2023/12/26 07:39:35;;;;;;;;;;;;;;;8.51;100.00;101021.78;5106439;28;20374;-44
2023/12/26 07:42:01;;;;;;;;;;;;;;;8.50;100.00;101041.53;5109568;28;20279;-45
2023/12/26 07:44:26;;;;;;;;;;;;;;;8.50;100.00;101044.22;5109096;28;19972;-46
2023/12/26 07:46:51;;;;;;;;;;;;;;;8.50;100.00;101049.59;5109683;28;20189;-47
2023/12/26 07:49:16;;;;;;;;;;;;;;;8.47;100.00;101044.56;5109590;28;20313;-44
2023/12/26 07:51:42;;;;;;;;;;;;;;;8.47;100.00;101052.59;5108217;28;19924;-45
2023/12/26 07:54:07;;;;;;;;;;;;;;;8.51;100.00;101056.66;5108635;28;20602;-44
2023/12/26 07:56:32;;;;;;;;;;;;;;;8.49;100.00;101055.97;5105369;28;19974;-44
2023/12/26 07:58:57;;;;;;;;;;;;;;;8.44;100.00;101066.34;5108180;28;19923;-46
2023/12/26 08:01:25;;;;;;;;;;;;;;;8.42;100.00;101073.72;5106146;27;19916;-43
2023/12/26 08:03:50;;;;;;;;;;;;;;;8.42;100.00;101088.97;5109137;27;20417;-46
2023/12/26 08:06:16;;;;;;;;;;;;;;;8.38;100.00;101082.22;5094394;28;19928;-46
2023/12/26 08:08:41;;;;;;;;;;;;;;;8.37;100.00;101081.38;5102597;28;20437;-45
2023/12/26 08:11:06;;;;;;;;;;;;;;;8.33;100.00;101080.03;5107294;28;20000;-43
2023/12/26 08:13:31;;;;;;;;;;;;;;;8.30;100.00;101091.09;5107512;28;20006;-45
2023/12/26 08:15:57;;;;;;;;;;;;;;;8.30;100.00;101104.50;5103790;28;19920;-45
2023/12/26 08:18:23;;;;;;;;;;;;;;;8.26;100.00;101109.31;5108351;28;19922;-46
2023/12/26 08:20:48;;;;;;;;;;;;;;;8.30;100.00;101110.69;5109243;28;19927;-46
2023/12/26 08:23:14;;;;;;;;;;;;;;;8.27;100.00;101113.69;5107013;28;19947;-46
2023/12/26 08:25:39;;;;;;;;;;;;;;;8.31;100.00;101108.84;5109040;28;20010;-45
2023/12/26 08:28:04;;;;;;;;;;;;;;;8.41;100.00;101117.63;5101791;28;19916;-45
2023/12/26 08:30:30;;;;;;;;;;;;;;;8.69;100.00;101122.75;5103907;28;19961;-45
2023/12/26 08:32:55;;;;;;;;;;;;;;;8.88;100.00;101133.22;5108513;28;19926;-44
2023/12/26 08:35:20;;;;;;;;;;;;;;;9.09;100.00;101129.25;5106540;28;20342;-45
2023/12/26 08:37:45;;;;;;;;;;;;;;;9.50;100.00;101126.59;5105121;28;19958;-45
2023/12/26 08:40:11;;;;;;;;;;;;;;;9.59;100.00;101125.59;5101867;28;19927;-46
2023/12/26 08:42:36;;;;;;;;;;;;;;;9.65;100.00;101124.91;5107965;28;19923;-45
2023/12/26 08:45:01;;;;;;;;;;;;;;;9.93;100.00;101136.16;5107925;28;19918;-45
2023/12/26 08:47:26;;;;;;;;;;;;;;;10.02;100.00;101142.34;5107989;28;19923;-45
2023/12/26 08:49:52;;;;;;;;;;;;;;;9.75;100.00;101144.41;5108415;28;19984;-46
2023/12/26 08:52:18;;;;;;;;;;;;;;;9.48;100.00;101153.66;5107771;28;19924;-46
2023/12/26 08:54:43;;;;;;;;;;;;;;;9.21;100.00;101173.56;5108377;28;19931;-45
2023/12/26 08:57:08;;;;;;;;;;;;;;;9.01;100.00;101173.03;5097453;28;19924;-46
2023/12/26 08:59:34;;;;;;;;;;;;;;;8.89;100.00;101190.44;5094719;28;19916;-45
2023/12/26 09:01:59;;;;;;;;;;;;;;;8.85;100.00;101191.78;5107241;28;20348;-47
2023/12/26 09:04:26;;;;;;;;;;;;;;;8.83;100.00;101197.28;5104084;28;20416;-46
2023/12/26 09:06:52;;;;;;;;;;;;;;;8.82;100.00;101197.44;5107227;28;20011;-45
2023/12/26 09:09:17;;;;;;;;;;;;;;;8.96;100.00;101203.03;5107045;28;20036;-45
2023/12/26 09:11:42;;;;;;;;;;;;;;;9.09;100.00;101204.44;5107858;28;19930;-44
2023/12/26 09:14:07;;;;;;;;;;;;;;;9.31;100.00;101213.72;5103956;28;19936;-45
2023/12/26 09:16:33;;;;;;;;;;;;;;;9.50;100.00;101218.78;5107229;28;19920;-45
2023/12/26 09:18:58;;;;;;;;;;;;;;;9.59;100.00;101216.97;5088923;28;19916;-45
2023/12/26 09:21:23;;;;;;;;;;;;;;;9.72;100.00;101214.63;5104436;28;19965;-45
2023/12/26 09:23:48;;;;;;;;;;;;;;;10.06;100.00;101219.81;5103897;28;19920;-45
2023/12/26 09:26:16;;;;;;;;;;;;;;;10.21;100.00;101217.28;5103320;27;19927;-46
2023/12/26 09:28:43;;;;;;;;;;;;;;;10.45;100.00;101224.50;5098088;28;20010;-46
2023/12/26 09:31:08;;;;;;;;;;;;;;;10.93;100.00;101224.53;5103423;28;19928;-47
2023/12/26 09:33:33;;;;;;;;;;;;;;;11.14;100.00;101229.31;5107034;28;19922;-45
2023/12/26 09:35:59;;;;;;;;;;;;;;;11.52;100.00;101240.19;5105947;28;19916;-46
2023/12/26 09:38:24;;;;;;;;;;;;;;;11.64;100.00;101249.56;5106368;28;20278;-48
2023/12/26 09:40:49;;;;;;;;;;;;;;;11.87;100.00;101252.25;5103945;28;19919;-47
2023/12/26 09:43:14;;;;;;;;;;;;;;;11.83;100.00;101242.84;5106791;28;19924;-47
2023/12/26 09:45:40;;;;;;;;;;;;;;;11.60;100.00;101234.75;5092191;28;19931;-45
2023/12/26 09:48:05;;;;;;;;;;;;;;;11.49;100.00;101254.88;5107347;28;19924;-45
2023/12/26 09:50:31;;;;;;;;;;;;;;;11.26;100.00;101264.75;5079717;28;19916;-45
2023/12/26 09:52:59;;;;;;;;;;;;;;;11.47;100.00;101273.06;5106845;28;19927;-45
2023/12/26 09:55:27;;;;;;;;;;;;;;;11.61;100.00;101280.41;5106706;28;19916;-45
2023/12/26 09:57:53;;;;;;;;;;;;;;;11.88;100.00;101288.19;5106323;28;19923;-44
2023/12/26 10:00:18;;;;;;;;;;;;;;;11.88;100.00;101286.31;5106622;28;20448;-45
2023/12/26 10:02:43;;;;;;;;;;;;;;;11.72;100.00;101289.13;5107142;28;20576;-45
2023/12/26 10:05:09;;;;;;;;;;;;;;;11.44;100.00;101276.13;5105633;28;19920;-44
2023/12/26 10:07:34;;;;;;;;;;;;;;;11.49;100.00;101287.22;5101888;28;20018;-47
2023/12/26 10:09:59;;;;;;;;;;;;;;;11.65;100.00;101303.28;5102609;28;20007;-46
2023/12/26 10:12:31;;;;;;;;;;;;;;;11.70;100.00;101293.84;5102790;28;19927;-47
2023/12/26 10:15:01;;;;;;;;;;;;;;;11.82;100.00;101297.78;5106082;28;20259;-45
2023/12/26 10:17:26;;;;;;;;;;;;;;;11.82;100.00;101298.66;5101519;28;19923;-48
2023/12/26 10:19:58;;;;;;;;;;;;;;;11.61;100.00;101295.72;5097132;28;19916;-46
2023/12/26 10:22:24;;;;;;;;;;;;;;;11.40;100.00;101302.59;5100747;28;19915;-45
2023/12/26 10:24:49;;;;;;;;;;;;;;;11.11;100.00;101319.41;5107637;28;20499;-45
2023/12/26 10:27:15;;;;;;;;;;;;;;;10.99;100.00;101302.75;5106892;28;19927;-45
2023/12/26 10:29:40;;;;;;;;;;;;;;;11.02;100.00;101323.13;5110397;28;20436;-46
2023/12/26 10:32:05;;;;;;;;;;;;;;;10.95;100.00;101322.13;5099387;28;19924;-46
2023/12/26 10:34:31;;;;;;;;;;;;;;;10.67;100.00;101324.38;5108821;28;20329;-45
2023/12/26 10:36:56;;;;;;;;;;;;;;;10.49;100.00;101321.88;5110665;28;19916;-47
2023/12/26 10:39:23;;;;;;;;;;;;;;;10.38;100.00;101322.22;5110534;28;19923;-45
2023/12/26 10:41:48;;;;;;;;;;;;;;;10.33;100.00;101334.31;5107558;28;20377;-45
2023/12/26 10:44:17;;;;;;;;;;;;;;;10.24;100.00;101335.31;5110118;28;19924;-45
2023/12/26 10:46:42;;;;;;;;;;;;;;;10.15;100.00;101339.00;5107960;28;19959;-45
2023/12/26 10:49:11;;;;;;;;;;;;;;;10.01;100.00;101335.13;5109981;28;20016;-45
2023/12/26 10:51:43;;;;;;;;;;;;;;;10.02;100.00;101346.72;5105038;28;20393;-44
2023/12/26 10:54:23;;;;;;;;;;;;;;;9.92;100.00;101360.28;5109857;28;20455;-46
2023/12/26 10:56:51;;;;;;;;;;;;;;;9.89;100.00;101356.09;5110674;28;19923;-47
2023/12/26 13:53:20;;;;;;;;;;;;;;;9.60;100.00;101551.88;5105309;28;19970;-46
2023/12/26 13:56:04;;;;;;;;;;;;;;;9.58;100.00;101556.53;5105118;28;20421;-45
2023/12/26 13:58:48;;;;;;;;;;;;;;;9.48;100.00;101569.22;5106436;28;20006;-45
2023/12/26 14:01:31;;;;;;;;;;;;;;;9.53;100.00;101575.84;5103774;28;19916;-45
2023/12/26 14:04:15;;;;;;;;;;;;;;;9.49;100.00;101582.53;5106372;28;19952;-47
2023/12/26 14:06:59;;;;;;;;;;;;;;;9.51;100.00;101580.53;5106571;28;19916;-45
2023/12/26 14:09:43;;;;;;;;;;;;;;;9.45;100.00;101600.81;5101023;28;20023;-46
2023/12/26 14:12:27;;;;;;;;;;;;;;;9.49;100.00;101600.50;5105744;28;20402;-45
2023/12/26 14:15:11;;;;;;;;;;;;;;;9.47;100.00;101605.19;5103972;28;20053;-46
2023/12/26 14:17:55;;;;;;;;;;;;;;;9.48;100.00;101601.47;5106840;28;20444;-47
2023/12/26 14:20:38;;;;;;;;;;;;;;;9.43;100.00;101615.41;5103465;28;20321;-45
2023/12/26 14:23:04;;;;;;;;;;;;;;;9.37;100.00;101605.25;5102475;28;19969;-46
2023/12/26 14:25:30;;;;;;;;;;;;;;;9.38;100.00;101610.50;5105547;28;19919;-45
2023/12/26 14:27:55;;;;;;;;;;;;;;;9.37;100.00;101606.13;5104005;28;20149;-47
2023/12/26 14:30:20;;;;;;;;;;;;;;;9.34;100.00;101608.25;5107004;28;20347;-45
2023/12/26 14:32:46;;;;;;;;;;;;;;;9.32;100.00;101603.06;5107518;28;19916;-48
2023/12/26 14:35:11;;;;;;;;;;;;;;;9.27;100.00;101610.75;5105440;28;19979;-45
2023/12/26 14:37:36;;;;;;;;;;;;;;;9.28;100.00;101612.41;5106129;28;20473;-44
2023/12/26 14:40:01;;;;;;;;;;;;;;;9.23;100.00;101614.72;5106241;28;20005;-45
2023/12/26 14:42:27;;;;;;;;;;;;;;;9.23;100.00;101626.28;5106130;28;20121;-45
2023/12/26 14:44:52;;;;;;;;;;;;;;;9.27;100.00;101636.72;5106219;28;19951;-47
2023/12/26 14:47:17;;;;;;;;;;;;;;;9.31;100.00;101627.38;5106202;28;19945;-45
2023/12/26 14:49:44;;;;;;;;;;;;;;;9.31;100.00;101640.81;5106576;28;19982;-45
2023/12/26 14:52:09;;;;;;;;;;;;;;;9.29;100.00;101643.63;5105786;28;20347;-44
2023/12/26 14:54:35;;;;;;;;;;;;;;;9.28;100.00;101654.56;5101050;28;20366;-46
2023/12/26 14:57:00;;;;;;;;;;;;;;;9.23;100.00;101645.09;5101459;28;20358;-45
2023/12/26 14:59:25;;;;;;;;;;;;;;;9.21;100.00;101651.63;5103634;28;19920;-45
2023/12/26 15:01:51;;;;;;;;;;;;;;;9.21;100.00;101662.38;5108142;28;19924;-47
2023/12/26 15:04:18;;;;;;;;;;;;;;;9.23;100.00;101663.06;5109660;28;19959;-45
2023/12/26 15:06:44;;;;;;;;;;;;;;;9.19;100.00;101667.06;5106240;28;20361;-44
2023/12/26 15:09:12;;;;;;;;;;;;;;;9.21;100.00;101670.41;5092811;28;20421;-46
2023/12/26 15:11:37;;;;;;;;;;;;;;;9.24;100.00;101678.16;5109776;27;20025;-45
2023/12/26 15:14:03;;;;;;;;;;;;;;;9.23;100.00;101676.50;5104076;28;19927;-46
2023/12/26 15:16:28;;;;;;;;;;;;;;;9.22;100.00;101677.50;5109507;28;19919;-46
2023/12/26 15:18:53;;;;;;;;;;;;;;;9.15;100.00;101679.09;5109206;28;19920;-47
2023/12/26 15:21:19;;;;;;;;;;;;;;;9.08;100.00;101686.91;5091763;28;20429;-46